createdAt,value
2022-09-12T00:01:38.095Z,18.62
2022-09-12T00:04:05.555Z,18.61
2022-09-12T00:06:35.495Z,18.58
2022-09-12T00:09:09.351Z,18.55
2022-09-12T00:11:37.785Z,18.52
2022-09-12T00:14:05.602Z,18.51
2022-09-12T00:16:34.902Z,18.49
2022-09-12T00:19:03.068Z,18.47
2022-09-12T00:21:30.145Z,18.45
2022-09-12T00:23:57.040Z,18.42
2022-09-12T00:26:24.677Z,18.40
2022-09-12T00:28:51.673Z,18.37
2022-09-12T00:31:24.304Z,18.36
2022-09-12T00:33:51.847Z,18.31
2022-09-12T00:36:20.878Z,18.28
2022-09-12T00:38:48.277Z,18.26
2022-09-12T00:41:19.541Z,18.25
2022-09-12T00:43:58.629Z,18.22
2022-09-12T00:46:37.148Z,18.21
2022-09-12T00:49:13.381Z,18.17
2022-09-12T00:51:43.674Z,18.15
2022-09-12T00:54:13.299Z,18.14
2022-09-12T00:56:41.847Z,18.11
2022-09-12T00:59:12.929Z,18.10
2022-09-12T01:01:40.905Z,18.07
2022-09-12T01:04:09.427Z,18.04
2022-09-12T01:06:41.156Z,18.03
2022-09-12T01:09:08.968Z,18.01
2022-09-12T01:11:37.191Z,17.98
2022-09-12T01:14:04.131Z,17.95
2022-09-12T01:16:31.235Z,17.93
2022-09-12T01:19:09.103Z,17.89
2022-09-12T01:21:44.941Z,17.88
2022-09-12T01:24:32.639Z,17.86
2022-09-12T01:27:38.197Z,17.81
2022-09-12T01:30:38.764Z,17.78
2022-09-12T01:33:35.351Z,17.75
2022-09-12T01:36:30.532Z,17.73
2022-09-12T01:39:01.049Z,17.70
2022-09-12T01:41:42.528Z,17.69
2022-09-12T01:44:32.237Z,17.67
2022-09-12T01:47:14.528Z,17.64
2022-09-12T01:49:46.405Z,17.62
2022-09-12T01:52:41.615Z,17.59
2022-09-12T01:55:17.114Z,17.57
2022-09-12T01:57:58.155Z,17.56
2022-09-12T02:00:25.191Z,17.53
2022-09-12T02:02:58.113Z,17.51
2022-09-12T02:05:36.478Z,17.49
2022-09-12T02:08:26.444Z,17.49
2022-09-12T02:10:57.071Z,17.47
2022-09-12T02:13:38.969Z,17.45
2022-09-12T02:16:10.745Z,17.44
2022-09-12T02:18:45.267Z,17.42
2022-09-12T02:21:12.322Z,17.41
2022-09-12T02:23:43.861Z,17.39
2022-09-12T02:26:15.185Z,17.37
2022-09-12T02:28:43.027Z,17.34
2022-09-12T02:31:40.205Z,17.33
2022-09-12T02:34:28.777Z,17.30
2022-09-12T02:37:04.518Z,17.27
2022-09-12T02:39:31.681Z,17.26
2022-09-12T02:42:00.986Z,17.24
2022-09-12T02:44:29.923Z,17.24
2022-09-12T02:47:05.079Z,17.21
2022-09-12T02:49:31.966Z,17.22
2022-09-12T02:51:59.501Z,17.21
2022-09-12T02:54:26.280Z,17.20
2022-09-12T02:56:53.128Z,17.19
2022-09-12T02:59:21.473Z,17.19
2022-09-12T03:02:00.260Z,17.18
2022-09-12T03:04:52.156Z,17.15
2022-09-12T03:07:37.813Z,17.14
2022-09-12T03:10:32.791Z,17.12
2022-09-12T03:13:23.159Z,17.10
2022-09-12T03:16:05.170Z,17.08
2022-09-12T03:18:50.682Z,17.05
2022-09-12T03:21:38.406Z,17.00
2022-09-12T03:24:16.467Z,16.98
2022-09-12T03:26:47.566Z,16.95
2022-09-12T03:29:15.251Z,16.95
2022-09-12T03:31:56.714Z,16.94
2022-09-12T03:34:25.346Z,16.91
2022-09-12T03:36:55.343Z,16.90
2022-09-12T03:39:24.442Z,16.89
2022-09-12T03:41:51.597Z,16.88
2022-09-12T03:44:18.881Z,16.86
2022-09-12T03:46:45.977Z,16.83
2022-09-12T03:49:13.009Z,16.82
2022-09-12T03:51:40.134Z,16.79
2022-09-12T03:54:07.117Z,16.78
2022-09-12T03:56:34.497Z,16.75
2022-09-12T03:59:01.335Z,16.73
2022-09-12T04:01:28.212Z,16.73
2022-09-12T04:03:54.990Z,16.72
2022-09-12T04:06:22.816Z,16.70
2022-09-12T04:08:52.049Z,16.69
2022-09-12T04:11:20.651Z,16.67
2022-09-12T04:13:47.728Z,16.65
2022-09-12T04:16:15.774Z,16.65
2022-09-12T04:18:42.840Z,16.61
2022-09-12T04:21:15.315Z,16.60
2022-09-12T04:23:42.272Z,16.58
2022-09-12T04:26:09.066Z,16.56
2022-09-12T04:28:37.077Z,16.54
2022-09-12T04:31:23.538Z,16.53
2022-09-12T04:33:55.029Z,16.52
2022-09-12T04:36:22.846Z,16.50
2022-09-12T04:38:50.290Z,16.48
2022-09-12T04:41:20.775Z,16.47
2022-09-12T04:43:48.578Z,16.43
2022-09-12T04:46:19.958Z,16.43
2022-09-12T04:48:47.603Z,16.41
2022-09-12T04:51:20.897Z,16.42
2022-09-12T04:53:49.789Z,16.41
2022-09-12T04:56:16.889Z,16.39
2022-09-12T04:58:43.904Z,16.38
2022-09-12T05:01:21.707Z,16.38
2022-09-12T05:03:49.626Z,16.37
2022-09-12T05:06:22.216Z,16.39
2022-09-12T05:08:49.026Z,16.39
2022-09-12T05:11:24.808Z,16.41
2022-09-12T05:13:54.123Z,16.41
2022-09-12T05:16:21.952Z,16.44
2022-09-12T05:18:50.177Z,16.47
2022-09-12T05:21:19.650Z,16.48
2022-09-12T05:23:49.707Z,16.51
2022-09-12T05:26:17.187Z,16.53
2022-09-12T05:28:44.052Z,16.54
2022-09-12T05:31:12.388Z,16.58
2022-09-12T05:33:40.703Z,16.60
2022-09-12T05:36:13.543Z,16.62
2022-09-12T05:38:40.521Z,16.65
2022-09-12T05:41:19.878Z,16.68
2022-09-12T05:43:53.040Z,16.71
2022-09-12T05:46:21.411Z,16.74
2022-09-12T05:48:52.489Z,16.79
2022-09-12T05:51:29.112Z,16.82
2022-09-12T05:53:57.668Z,16.87
2022-09-12T05:56:28.873Z,16.95
2022-09-12T05:58:58.012Z,17.08
2022-09-12T06:01:26.244Z,17.26
2022-09-12T06:03:54.939Z,17.43
2022-09-12T06:06:24.423Z,17.66
2022-09-12T06:08:53.012Z,17.88
2022-09-12T06:11:23.031Z,18.05
2022-09-12T06:13:51.158Z,18.17
2022-09-12T06:16:22.770Z,18.28
2022-09-12T06:19:02.267Z,18.41
2022-09-12T06:21:31.285Z,18.48
2022-09-12T06:23:58.913Z,18.55
2022-09-12T06:26:26.191Z,18.61
2022-09-12T06:28:54.332Z,18.65
2022-09-12T06:31:26.800Z,18.70
2022-09-12T06:33:54.695Z,18.72
2022-09-12T06:36:32.331Z,18.78
2022-09-12T06:39:01.455Z,18.84
2022-09-12T06:41:29.257Z,18.97
2022-09-12T06:43:56.654Z,19.15
2022-09-12T06:46:24.402Z,19.28
2022-09-12T06:48:54.262Z,19.37
2022-09-12T06:51:21.535Z,19.45
2022-09-12T06:53:49.207Z,19.52
2022-09-12T06:56:21.593Z,19.57
2022-09-12T06:58:50.439Z,19.60
2022-09-12T07:01:20.785Z,19.67
2022-09-12T07:03:52.425Z,19.72
2022-09-12T07:06:21.482Z,19.75
2022-09-12T07:08:48.582Z,19.76
2022-09-12T07:11:21.089Z,19.79
2022-09-12T07:13:50.071Z,19.83
2022-09-12T07:16:20.002Z,19.91
2022-09-12T07:18:51.754Z,20.06
2022-09-12T07:21:18.831Z,20.35
2022-09-12T07:23:46.160Z,20.65
2022-09-12T07:26:14.512Z,21.01
2022-09-12T07:28:41.840Z,21.44
2022-09-12T07:31:14.059Z,21.96
2022-09-12T07:33:41.768Z,22.49
2022-09-12T07:36:13.576Z,22.99
2022-09-12T07:39:02.163Z,23.42
2022-09-12T07:41:36.005Z,23.82
2022-09-12T07:44:04.093Z,24.18
2022-09-12T07:46:50.278Z,24.55
2022-09-12T07:49:17.197Z,24.84
2022-09-12T07:51:44.322Z,25.11
2022-09-12T07:54:26.886Z,25.31
2022-09-12T07:56:54.037Z,25.52
2022-09-12T07:59:35.640Z,25.70
2022-09-12T08:02:17.138Z,25.90
2022-09-12T08:04:44.921Z,25.90
2022-09-12T08:07:14.672Z,25.75
2022-09-12T08:09:41.562Z,25.71
2022-09-12T08:12:11.317Z,25.74
2022-09-12T08:14:41.318Z,25.78
2022-09-12T08:17:08.522Z,25.79
2022-09-12T08:19:35.511Z,25.77
2022-09-12T08:22:05.441Z,25.72
2022-09-12T08:24:34.563Z,25.63
2022-09-12T08:27:05.110Z,25.52
2022-09-12T08:29:32.110Z,25.43
2022-09-12T08:31:58.962Z,25.35
2022-09-12T08:34:26.129Z,25.27
2022-09-12T08:36:55.857Z,25.18
2022-09-12T08:39:22.657Z,25.12
2022-09-12T08:41:57.940Z,25.10
2022-09-12T08:44:46.480Z,25.10
2022-09-12T08:47:32.949Z,25.06
2022-09-12T08:50:10.555Z,25.00
2022-09-12T08:52:46.276Z,24.96
2022-09-12T08:55:31.131Z,24.95
2022-09-12T08:58:00.647Z,24.96
2022-09-12T09:00:42.134Z,24.98
2022-09-12T09:03:38.681Z,24.99
2022-09-12T09:06:31.225Z,24.95
2022-09-12T09:09:24.392Z,24.93
2022-09-12T09:12:10.789Z,24.91
2022-09-12T09:15:01.143Z,24.89
2022-09-12T09:17:32.936Z,24.87
2022-09-12T09:20:12.312Z,24.85
2022-09-12T09:23:08.189Z,24.83
2022-09-12T09:25:50.616Z,24.82
2022-09-12T09:28:22.658Z,24.81
2022-09-12T09:30:49.419Z,24.80
2022-09-12T09:33:22.928Z,24.80
2022-09-12T09:36:04.669Z,24.81
2022-09-12T09:38:45.252Z,24.82
2022-09-12T09:41:26.755Z,24.83
2022-09-12T09:43:53.472Z,24.86
2022-09-12T09:46:20.220Z,24.87
2022-09-12T09:48:50.266Z,24.92
2022-09-12T09:51:21.984Z,24.95
2022-09-12T09:53:52.248Z,25.03
2022-09-12T09:56:33.517Z,25.11
2022-09-12T09:59:16.422Z,25.18
2022-09-12T10:01:57.756Z,25.24
2022-09-12T10:04:31.240Z,25.26
2022-09-12T10:06:59.615Z,25.31
2022-09-12T10:09:33.006Z,25.33
2022-09-12T10:12:06.192Z,25.40
2022-09-12T10:14:38.539Z,25.45
2022-09-12T10:17:33.125Z,25.52
2022-09-12T10:20:19.912Z,25.57
2022-09-12T10:22:47.580Z,25.63
2022-09-12T10:25:16.517Z,25.64
2022-09-12T10:27:43.340Z,25.66
2022-09-12T10:30:18.430Z,25.67
2022-09-12T10:32:52.150Z,25.70
2022-09-12T10:35:24.396Z,25.72
2022-09-12T10:37:57.787Z,25.79
2022-09-12T10:40:27.702Z,25.80
2022-09-12T10:42:57.062Z,25.81
2022-09-12T10:45:29.636Z,25.84
2022-09-12T10:47:59.081Z,25.87
2022-09-12T10:50:32.182Z,25.89
2022-09-12T10:53:23.277Z,25.91
2022-09-12T10:56:02.151Z,25.95
2022-09-12T10:58:51.882Z,25.98
2022-09-12T11:01:45.972Z,26.02
2022-09-12T11:04:43.642Z,26.05
2022-09-12T11:07:35.907Z,26.07
2022-09-12T11:10:11.642Z,26.08
2022-09-12T11:12:53.042Z,26.10
2022-09-12T11:15:40.996Z,26.15
2022-09-12T11:18:07.631Z,26.19
2022-09-12T11:20:44.572Z,26.23
2022-09-12T11:23:28.512Z,26.27
2022-09-12T11:25:58.402Z,26.29
2022-09-12T11:28:48.436Z,26.32
2022-09-12T11:31:31.866Z,26.33
2022-09-12T11:34:00.334Z,26.38
2022-09-12T11:36:56.946Z,26.40
2022-09-12T11:39:30.110Z,26.43
2022-09-12T11:42:00.484Z,26.47
2022-09-12T11:44:40.163Z,26.50
2022-09-12T11:47:14.560Z,26.53
2022-09-12T11:49:48.548Z,26.57
2022-09-12T11:52:25.851Z,26.57
2022-09-12T11:55:01.151Z,26.60
2022-09-12T11:57:45.759Z,26.64
2022-09-12T12:00:17.650Z,26.68
2022-09-12T12:02:55.441Z,26.74
2022-09-12T12:05:42.312Z,26.79
2022-09-12T12:08:09.407Z,26.85
2022-09-12T12:10:56.190Z,26.88
2022-09-12T12:13:34.762Z,26.94
2022-09-12T12:16:08.226Z,26.97
2022-09-12T12:18:38.015Z,27.02
2022-09-12T12:21:29.346Z,27.07
2022-09-12T12:24:23.200Z,27.09
2022-09-12T12:26:52.974Z,27.11
2022-09-12T12:29:19.595Z,27.12
2022-09-12T12:31:58.343Z,27.12
2022-09-12T12:34:33.248Z,27.12
2022-09-12T12:37:19.875Z,27.09
2022-09-12T12:39:50.358Z,27.05
2022-09-12T12:42:32.322Z,27.03
2022-09-12T12:45:00.382Z,27.00
2022-09-12T12:47:32.294Z,26.99
2022-09-12T12:50:11.222Z,26.99
2022-09-12T12:52:53.976Z,27.01
2022-09-12T12:55:26.228Z,27.02
2022-09-12T12:57:54.200Z,27.05
2022-09-12T13:00:20.935Z,27.07
2022-09-12T13:03:00.573Z,27.07
2022-09-12T13:05:29.983Z,27.09
2022-09-12T13:08:02.765Z,27.10
2022-09-12T13:10:29.851Z,27.12
2022-09-12T13:13:03.269Z,27.14
2022-09-12T13:15:36.138Z,27.21
2022-09-12T13:18:08.126Z,27.29
2022-09-12T13:20:44.089Z,27.38
2022-09-12T13:23:25.761Z,27.42
2022-09-12T13:25:57.557Z,27.48
2022-09-12T13:28:26.308Z,27.54
2022-09-12T13:31:00.926Z,27.58
2022-09-12T13:33:43.068Z,27.67
2022-09-12T13:36:13.494Z,27.71
2022-09-12T13:38:54.343Z,27.76
2022-09-12T13:41:33.216Z,27.79
2022-09-12T13:44:00.907Z,27.83
2022-09-12T13:46:32.617Z,27.88
2022-09-12T13:49:00.824Z,27.88
2022-09-12T13:51:30.054Z,27.88
2022-09-12T13:54:00.066Z,27.89
2022-09-12T13:56:26.862Z,27.88
2022-09-12T13:58:56.807Z,27.91
2022-09-12T14:01:25.776Z,27.91
2022-09-12T14:04:15.248Z,27.93
2022-09-12T14:06:50.066Z,27.93
2022-09-12T14:09:25.303Z,27.95
2022-09-12T14:11:52.820Z,27.94
2022-09-12T14:14:42.082Z,27.94
2022-09-12T14:17:23.051Z,27.94
2022-09-12T14:19:51.237Z,27.96
2022-09-12T14:22:18.047Z,27.96
2022-09-12T14:24:50.402Z,27.96
2022-09-12T14:27:26.068Z,27.95
2022-09-12T14:29:57.870Z,27.95
2022-09-12T14:32:24.771Z,27.97
2022-09-12T14:35:18.209Z,27.97
2022-09-12T14:37:48.198Z,27.95
2022-09-12T14:40:23.470Z,27.97
2022-09-12T14:42:52.526Z,27.96
2022-09-12T14:45:32.130Z,27.97
2022-09-12T14:47:58.980Z,27.96
2022-09-12T14:50:29.450Z,27.94
2022-09-12T14:53:24.126Z,27.92
2022-09-12T14:55:54.104Z,27.93
2022-09-12T14:58:20.703Z,27.90
2022-09-12T15:01:07.224Z,27.83
2022-09-12T15:03:48.696Z,27.77
2022-09-12T15:06:28.185Z,27.74
2022-09-12T15:08:55.972Z,27.73
2022-09-12T15:11:22.749Z,27.74
2022-09-12T15:13:49.598Z,27.74
2022-09-12T15:16:16.688Z,27.76
2022-09-12T15:18:43.551Z,27.78
2022-09-12T15:21:14.012Z,27.77
2022-09-12T15:23:44.700Z,27.74
2022-09-12T15:26:19.914Z,27.73
2022-09-12T15:28:46.653Z,27.70
2022-09-12T15:31:25.260Z,27.66
2022-09-12T15:33:52.239Z,27.58
2022-09-12T15:36:20.654Z,27.53
2022-09-12T15:38:47.922Z,27.46
2022-09-12T15:41:19.700Z,27.42
2022-09-12T15:43:46.977Z,27.33
2022-09-12T15:46:15.171Z,27.26
2022-09-12T15:48:41.940Z,27.20
2022-09-12T15:51:15.420Z,27.14
2022-09-12T15:53:43.074Z,27.08
2022-09-12T15:56:09.871Z,27.02
2022-09-12T15:58:36.676Z,26.96
2022-09-12T16:01:04.311Z,26.92
2022-09-12T16:03:31.431Z,26.89
2022-09-12T16:06:02.436Z,26.85
2022-09-12T16:08:31.398Z,26.80
2022-09-12T16:11:00.417Z,26.76
2022-09-12T16:13:27.359Z,26.72
2022-09-12T16:15:57.445Z,26.68
2022-09-12T16:18:24.448Z,26.66
2022-09-12T16:20:55.257Z,26.64
2022-09-12T16:23:22.279Z,26.61
2022-09-12T16:26:06.119Z,26.58
2022-09-12T16:28:33.554Z,26.54
2022-09-12T16:31:02.087Z,26.51
2022-09-12T16:33:29.881Z,26.48
2022-09-12T16:36:04.447Z,26.42
2022-09-12T16:38:31.543Z,26.37
2022-09-12T16:41:02.495Z,26.34
2022-09-12T16:43:30.109Z,26.28
2022-09-12T16:46:06.710Z,26.24
2022-09-12T16:48:33.701Z,26.19
2022-09-12T16:51:02.306Z,26.16
2022-09-12T16:53:33.416Z,26.10
2022-09-12T16:56:00.437Z,26.07
2022-09-12T16:58:27.654Z,26.02
2022-09-12T17:01:05.490Z,25.96
2022-09-12T17:03:32.257Z,25.93
2022-09-12T17:06:01.180Z,25.88
2022-09-12T17:08:29.066Z,25.81
2022-09-12T17:11:04.118Z,25.77
2022-09-12T17:13:46.872Z,25.72
2022-09-12T17:16:19.022Z,25.65
2022-09-12T17:18:45.760Z,25.59
2022-09-12T17:21:12.940Z,25.54
2022-09-12T17:23:40.322Z,25.47
2022-09-12T17:26:07.569Z,25.41
2022-09-12T17:28:34.277Z,25.35
2022-09-12T17:31:11.816Z,25.29
2022-09-12T17:33:39.581Z,25.23
2022-09-12T17:36:12.553Z,25.17
2022-09-12T17:38:39.710Z,25.10
2022-09-12T17:41:07.114Z,25.05
2022-09-12T17:43:34.974Z,24.98
2022-09-12T17:46:01.731Z,24.92
2022-09-12T17:48:28.449Z,24.85
2022-09-12T17:50:55.142Z,24.79
2022-09-12T17:53:21.901Z,24.73
2022-09-12T17:55:51.516Z,24.68
2022-09-12T17:58:20.925Z,24.62
2022-09-12T18:01:06.109Z,24.56
2022-09-12T18:03:35.041Z,24.48
2022-09-12T18:06:01.995Z,24.43
2022-09-12T18:08:28.779Z,24.39
2022-09-12T18:11:03.839Z,24.31
2022-09-12T18:13:32.402Z,24.26
2022-09-12T18:16:04.036Z,24.21
2022-09-12T18:18:31.534Z,24.17
2022-09-12T18:20:58.389Z,24.12
2022-09-12T18:23:25.102Z,24.06
2022-09-12T18:25:59.816Z,24.01
2022-09-12T18:28:26.846Z,23.96
2022-09-12T18:30:53.901Z,23.91
2022-09-12T18:33:23.859Z,23.86
2022-09-12T18:35:51.225Z,23.83
2022-09-12T18:38:17.955Z,23.78
2022-09-12T18:40:44.648Z,23.74
2022-09-12T18:43:11.371Z,23.70
2022-09-12T18:45:38.063Z,23.66
2022-09-12T18:48:06.094Z,23.61
2022-09-12T18:50:33.064Z,23.58
2022-09-12T18:53:00.127Z,23.51
2022-09-12T18:55:27.079Z,23.48
2022-09-12T18:57:55.249Z,23.44
2022-09-12T19:00:22.071Z,23.39
2022-09-12T19:02:49.045Z,23.35
2022-09-12T19:05:15.937Z,23.32
2022-09-12T19:07:42.672Z,23.28
2022-09-12T19:10:09.384Z,23.25
2022-09-12T19:12:36.089Z,23.20
2022-09-12T19:15:03.892Z,23.17
2022-09-12T19:17:30.656Z,23.12
2022-09-12T19:19:57.393Z,23.09
2022-09-12T19:22:24.120Z,23.06
2022-09-12T19:24:50.824Z,23.01
2022-09-12T19:27:17.542Z,22.99
2022-09-12T19:29:44.279Z,22.95
2022-09-12T19:32:11.008Z,22.93
2022-09-12T19:34:37.776Z,22.91
2022-09-12T19:37:04.474Z,22.87
2022-09-12T19:39:31.372Z,22.84
2022-09-12T19:41:58.093Z,22.81
2022-09-12T19:44:27.056Z,22.77
2022-09-12T19:46:53.750Z,22.73
2022-09-12T19:49:20.457Z,22.70
2022-09-12T19:51:47.185Z,22.67
2022-09-12T19:54:13.916Z,22.64
2022-09-12T19:56:40.739Z,22.61
2022-09-12T19:59:07.450Z,22.56
2022-09-12T20:01:36.778Z,22.54
2022-09-12T20:04:04.483Z,22.51
2022-09-12T20:06:31.192Z,22.47
2022-09-12T20:08:57.976Z,22.43
2022-09-12T20:11:25.665Z,22.41
2022-09-12T20:13:52.340Z,22.38
2022-09-12T20:16:25.346Z,22.33
2022-09-12T20:18:58.118Z,22.31
2022-09-12T20:21:30.902Z,22.27
2022-09-12T20:24:02.857Z,22.23
2022-09-12T20:26:29.729Z,22.20
2022-09-12T20:28:56.552Z,22.16
2022-09-12T20:31:23.342Z,22.14
2022-09-12T20:33:52.146Z,22.12
2022-09-12T20:36:20.355Z,22.09
2022-09-12T20:38:49.541Z,22.07
2022-09-12T20:41:17.077Z,22.03
2022-09-12T20:43:43.793Z,22.00
2022-09-12T20:46:11.410Z,21.98
2022-09-12T20:48:38.883Z,21.96
2022-09-12T20:51:06.320Z,21.92
2022-09-12T20:53:35.201Z,21.90
2022-09-12T20:56:03.045Z,21.88
2022-09-12T20:58:29.835Z,21.85
2022-09-12T21:00:56.718Z,21.83
2022-09-12T21:03:23.504Z,21.80
2022-09-12T21:05:50.215Z,21.79
2022-09-12T21:08:17.164Z,21.75
2022-09-12T21:10:44.433Z,21.74
2022-09-12T21:13:12.128Z,21.72
2022-09-12T21:15:39.837Z,21.71
2022-09-12T21:18:06.627Z,21.68
2022-09-12T21:20:33.771Z,21.66
2022-09-12T21:23:00.642Z,21.64
2022-09-12T21:25:28.878Z,21.63
2022-09-12T21:27:55.703Z,21.61
2022-09-12T21:30:22.515Z,21.59
2022-09-12T21:32:49.244Z,21.56
2022-09-12T21:35:16.209Z,21.54
2022-09-12T21:37:42.909Z,21.53
2022-09-12T21:40:10.022Z,21.51
2022-09-12T21:42:36.779Z,21.50
2022-09-12T21:45:03.585Z,21.49
2022-09-12T21:47:30.322Z,21.47
2022-09-12T21:49:57.575Z,21.47
2022-09-12T21:52:24.337Z,21.46
2022-09-12T21:54:51.031Z,21.45
2022-09-12T21:57:17.737Z,21.42
2022-09-12T21:59:44.465Z,21.42
2022-09-12T22:02:12.356Z,21.41
2022-09-12T22:04:39.425Z,21.39
2022-09-12T22:07:06.685Z,21.38
2022-09-12T22:09:34.373Z,21.36
2022-09-12T22:12:02.227Z,21.34
2022-09-12T22:14:29.387Z,21.32
2022-09-12T22:16:56.715Z,21.31
2022-09-12T22:19:23.474Z,21.28
2022-09-12T22:22:08.957Z,21.26
2022-09-12T22:24:35.792Z,21.24
2022-09-12T22:27:04.257Z,21.23
2022-09-12T22:29:31.257Z,21.20
2022-09-12T22:31:59.076Z,21.18
2022-09-12T22:34:26.826Z,21.17
2022-09-12T22:36:53.583Z,21.13
2022-09-12T22:39:20.448Z,21.12
2022-09-12T22:41:47.233Z,21.09
2022-09-12T22:44:14.199Z,21.07
2022-09-12T22:46:40.980Z,21.04
2022-09-12T22:49:07.804Z,21.04
2022-09-12T22:51:34.742Z,21.02
2022-09-12T22:54:01.806Z,21.02
2022-09-12T22:56:28.511Z,21.01
2022-09-12T22:58:55.296Z,21.00
2022-09-12T23:01:22.034Z,20.99
2022-09-12T23:03:48.926Z,21.00
2022-09-12T23:06:15.816Z,21.00
2022-09-12T23:08:42.593Z,21.01
2022-09-12T23:11:11.592Z,21.02
2022-09-12T23:13:38.947Z,21.03
2022-09-12T23:16:07.102Z,21.05
2022-09-12T23:18:35.954Z,21.07
2022-09-12T23:21:05.314Z,21.08
2022-09-12T23:23:32.632Z,21.08
2022-09-12T23:26:07.386Z,21.11
2022-09-12T23:28:34.802Z,21.11
2022-09-12T23:31:02.003Z,21.08
2022-09-12T23:33:29.441Z,21.09
2022-09-12T23:36:00.513Z,21.07
2022-09-12T23:38:28.544Z,21.06
2022-09-12T23:40:55.258Z,21.06
2022-09-12T23:43:22.013Z,21.05
2022-09-12T23:45:48.801Z,21.05
2022-09-12T23:48:15.765Z,21.02
2022-09-12T23:50:46.527Z,21.02
2022-09-12T23:53:14.632Z,21.02
2022-09-12T23:55:41.560Z,21.03
2022-09-12T23:58:08.409Z,21.02
